Terminal Aerodrome Forecast
Issued by NWS Twin Cities, MN

Home | Current Version | Previous Version | Text Only | Print | Product List | Glossary On
Versions: 1 2 3 4 5 6 7 8 9 10 11 12 13 14 15 16 17 18 19 20 21 22 23 24 25 26 27
000
FTUS43 KMPX 302342
TAFMSP
TAF
KMSP 302342Z 3100/0106 17008KT P6SM SCT110
     FM310600 13008KT P6SM VCSH OVC070
      TEMPO 3108/3110 4SM TSRA OVC045CB
     FM311000 13008KT P6SM -SHRA VCTS SCT025CB OVC045
     FM311500 16010KT P6SM VCSH OVC040
     FM311900 20012KT P6SM VCSH BKN050 PROB30 3119/3122 4SM TSRA
      BKN040CB
     FM312300 23009KT P6SM SCT200=

USA.gov is the U.S. government's official web portal to all federal, state and local government web resources and services.